sensor_id;sensor_type;location;lat;lon;timestamp;P1;durP1;ratioP1;P2;durP2;ratioP2
20657;SDS011;10488;50.846;4.078;2023-05-10T00:00:07;14.10;;;7.47;;
20657;SDS011;10488;50.846;4.078;2023-05-10T00:02:34;18.98;;;7.65;;
20657;SDS011;10488;50.846;4.078;2023-05-10T00:05:00;12.15;;;7.97;;
20657;SDS011;10488;50.846;4.078;2023-05-10T00:07:26;14.30;;;7.45;;
20657;SDS011;10488;50.846;4.078;2023-05-10T00:09:52;15.77;;;7.50;;
20657;SDS011;10488;50.846;4.078;2023-05-10T00:12:17;13.60;;;7.57;;
20657;SDS011;10488;50.846;4.078;2023-05-10T00:14:43;14.60;;;7.78;;
20657;SDS011;10488;50.846;4.078;2023-05-10T00:17:09;15.85;;;7.65;;
20657;SDS011;10488;50.846;4.078;2023-05-10T00:19:34;16.63;;;8.75;;
20657;SDS011;10488;50.846;4.078;2023-05-10T00:22:00;16.60;;;8.75;;
20657;SDS011;10488;50.846;4.078;2023-05-10T00:24:26;16.25;;;7.82;;
20657;SDS011;10488;50.846;4.078;2023-05-10T00:26:52;15.95;;;8.07;;
20657;SDS011;10488;50.846;4.078;2023-05-10T00:29:17;19.45;;;8.77;;
20657;SDS011;10488;50.846;4.078;2023-05-10T00:31:43;15.98;;;9.50;;
20657;SDS011;10488;50.846;4.078;2023-05-10T00:34:09;18.38;;;8.27;;
20657;SDS011;10488;50.846;4.078;2023-05-10T00:36:35;14.70;;;8.93;;
20657;SDS011;10488;50.846;4.078;2023-05-10T00:39:00;18.42;;;9.75;;
20657;SDS011;10488;50.846;4.078;2023-05-10T00:41:28;14.40;;;9.05;;
20657;SDS011;10488;50.846;4.078;2023-05-10T00:43:56;16.55;;;9.45;;
20657;SDS011;10488;50.846;4.078;2023-05-10T00:46:22;17.33;;;10.05;;
20657;SDS011;10488;50.846;4.078;2023-05-10T00:48:48;21.83;;;9.93;;
20657;SDS011;10488;50.846;4.078;2023-05-10T00:51:14;18.60;;;9.27;;
20657;SDS011;10488;50.846;4.078;2023-05-10T00:53:39;22.08;;;10.43;;
20657;SDS011;10488;50.846;4.078;2023-05-10T00:56:05;20.17;;;10.35;;
20657;SDS011;10488;50.846;4.078;2023-05-10T00:58:32;25.65;;;11.70;;
20657;SDS011;10488;50.846;4.078;2023-05-10T01:00:58;19.73;;;10.68;;
20657;SDS011;10488;50.846;4.078;2023-05-10T01:03:24;22.20;;;10.60;;
20657;SDS011;10488;50.846;4.078;2023-05-10T01:05:51;20.75;;;11.07;;
20657;SDS011;10488;50.846;4.078;2023-05-10T01:08:17;20.90;;;10.57;;
20657;SDS011;10488;50.846;4.078;2023-05-10T01:10:43;23.00;;;11.75;;
20657;SDS011;10488;50.846;4.078;2023-05-10T01:13:10;20.70;;;10.23;;
20657;SDS011;10488;50.846;4.078;2023-05-10T01:15:37;23.10;;;11.65;;
20657;SDS011;10488;50.846;4.078;2023-05-10T01:18:03;27.98;;;10.43;;
20657;SDS011;10488;50.846;4.078;2023-05-10T01:20:32;19.05;;;10.40;;
20657;SDS011;10488;50.846;4.078;2023-05-10T01:34:45;20.02;;;10.63;;
20657;SDS011;10488;50.846;4.078;2023-05-10T01:37:20;20.48;;;10.75;;
20657;SDS011;10488;50.846;4.078;2023-05-10T01:40:38;22.95;;;10.70;;
20657;SDS011;10488;50.846;4.078;2023-05-10T01:43:03;23.52;;;10.73;;
20657;SDS011;10488;50.846;4.078;2023-05-10T01:48:25;23.00;;;10.88;;
20657;SDS011;10488;50.846;4.078;2023-05-10T01:50:52;25.88;;;11.55;;
20657;SDS011;10488;50.846;4.078;2023-05-10T01:53:19;21.65;;;11.48;;
20657;SDS011;10488;50.846;4.078;2023-05-10T01:55:48;21.70;;;11.75;;
20657;SDS011;10488;50.846;4.078;2023-05-10T01:58:20;21.67;;;12.02;;
20657;SDS011;10488;50.846;4.078;2023-05-10T02:00:54;25.23;;;12.23;;
20657;SDS011;10488;50.846;4.078;2023-05-10T02:03:22;23.20;;;12.65;;
20657;SDS011;10488;50.846;4.078;2023-05-10T02:05:50;21.85;;;12.95;;
20657;SDS011;10488;50.846;4.078;2023-05-10T02:08:18;26.70;;;13.18;;
20657;SDS011;10488;50.846;4.078;2023-05-10T02:10:45;26.13;;;13.45;;
20657;SDS011;10488;50.846;4.078;2023-05-10T02:13:12;26.08;;;12.60;;
20657;SDS011;10488;50.846;4.078;2023-05-10T02:15:40;25.85;;;12.27;;
20657;SDS011;10488;50.846;4.078;2023-05-10T02:18:07;24.52;;;12.80;;
20657;SDS011;10488;50.846;4.078;2023-05-10T02:20:35;24.30;;;12.88;;
20657;SDS011;10488;50.846;4.078;2023-05-10T02:23:02;22.15;;;11.35;;
20657;SDS011;10488;50.846;4.078;2023-05-10T02:25:29;27.08;;;12.75;;
20657;SDS011;10488;50.846;4.078;2023-05-10T02:27:56;24.98;;;11.77;;
20657;SDS011;10488;50.846;4.078;2023-05-10T02:30:25;31.80;;;12.18;;
20657;SDS011;10488;50.846;4.078;2023-05-10T02:32:51;23.35;;;12.82;;
20657;SDS011;10488;50.846;4.078;2023-05-10T02:35:18;23.88;;;11.68;;
20657;SDS011;10488;50.846;4.078;2023-05-10T02:37:44;24.23;;;12.60;;
20657;SDS011;10488;50.846;4.078;2023-05-10T02:40:11;20.15;;;11.73;;
20657;SDS011;10488;50.846;4.078;2023-05-10T02:42:40;21.88;;;12.15;;
20657;SDS011;10488;50.846;4.078;2023-05-10T02:45:10;25.73;;;13.32;;
20657;SDS011;10488;50.846;4.078;2023-05-10T02:47:39;23.55;;;12.63;;
20657;SDS011;10488;50.846;4.078;2023-05-10T02:50:05;29.42;;;14.45;;
20657;SDS011;10488;50.846;4.078;2023-05-10T02:52:50;24.98;;;13.55;;
20657;SDS011;10488;50.846;4.078;2023-05-10T02:55:17;29.48;;;14.15;;
20657;SDS011;10488;50.846;4.078;2023-05-10T02:57:56;25.42;;;14.13;;
20657;SDS011;10488;50.846;4.078;2023-05-10T03:00:24;27.23;;;13.60;;
20657;SDS011;10488;50.846;4.078;2023-05-10T03:02:50;29.58;;;15.43;;
20657;SDS011;10488;50.846;4.078;2023-05-10T03:05:15;36.40;;;17.38;;
20657;SDS011;10488;50.846;4.078;2023-05-10T03:07:42;29.20;;;14.77;;
20657;SDS011;10488;50.846;4.078;2023-05-10T03:10:08;34.08;;;16.30;;
20657;SDS011;10488;50.846;4.078;2023-05-10T03:15:25;29.45;;;15.57;;
20657;SDS011;10488;50.846;4.078;2023-05-10T03:18:23;26.08;;;15.77;;
20657;SDS011;10488;50.846;4.078;2023-05-10T03:21:11;25.65;;;15.00;;
20657;SDS011;10488;50.846;4.078;2023-05-10T03:23:43;36.72;;;16.48;;
20657;SDS011;10488;50.846;4.078;2023-05-10T03:26:17;30.83;;;15.45;;
20657;SDS011;10488;50.846;4.078;2023-05-10T03:28:50;27.70;;;15.50;;
20657;SDS011;10488;50.846;4.078;2023-05-10T03:31:18;28.58;;;17.35;;
20657;SDS011;10488;50.846;4.078;2023-05-10T03:33:47;30.85;;;17.75;;
20657;SDS011;10488;50.846;4.078;2023-05-10T03:36:13;30.98;;;17.25;;
20657;SDS011;10488;50.846;4.078;2023-05-10T03:38:39;32.10;;;17.20;;
20657;SDS011;10488;50.846;4.078;2023-05-10T03:41:04;30.55;;;17.60;;
20657;SDS011;10488;50.846;4.078;2023-05-10T03:43:30;38.40;;;18.00;;
20657;SDS011;10488;50.846;4.078;2023-05-10T03:45:56;32.38;;;18.20;;
20657;SDS011;10488;50.846;4.078;2023-05-10T03:48:21;34.30;;;18.17;;
20657;SDS011;10488;50.846;4.078;2023-05-10T03:50:47;36.97;;;19.73;;
20657;SDS011;10488;50.846;4.078;2023-05-10T03:53:14;38.78;;;20.80;;
20657;SDS011;10488;50.846;4.078;2023-05-10T03:55:40;39.92;;;20.08;;
20657;SDS011;10488;50.846;4.078;2023-05-10T03:58:06;46.60;;;21.77;;
20657;SDS011;10488;50.846;4.078;2023-05-10T04:00:32;40.85;;;20.98;;
20657;SDS011;10488;50.846;4.078;2023-05-10T04:02:58;44.30;;;23.33;;
20657;SDS011;10488;50.846;4.078;2023-05-10T04:05:23;43.35;;;21.50;;
20657;SDS011;10488;50.846;4.078;2023-05-10T04:07:49;35.80;;;19.75;;
20657;SDS011;10488;50.846;4.078;2023-05-10T04:10:16;37.10;;;19.85;;
20657;SDS011;10488;50.846;4.078;2023-05-10T04:12:41;37.63;;;19.58;;
20657;SDS011;10488;50.846;4.078;2023-05-10T04:15:07;37.13;;;19.23;;
20657;SDS011;10488;50.846;4.078;2023-05-10T04:17:33;46.15;;;18.63;;
20657;SDS011;10488;50.846;4.078;2023-05-10T04:19:59;38.92;;;18.40;;
20657;SDS011;10488;50.846;4.078;2023-05-10T04:22:25;39.80;;;18.40;;
20657;SDS011;10488;50.846;4.078;2023-05-10T04:24:50;39.53;;;18.05;;
20657;SDS011;10488;50.846;4.078;2023-05-10T04:27:16;40.55;;;17.27;;
20657;SDS011;10488;50.846;4.078;2023-05-10T04:29:42;40.15;;;17.20;;
20657;SDS011;10488;50.846;4.078;2023-05-10T04:32:07;37.40;;;18.25;;
20657;SDS011;10488;50.846;4.078;2023-05-10T04:34:35;38.70;;;16.77;;
20657;SDS011;10488;50.846;4.078;2023-05-10T04:37:01;38.47;;;17.50;;
20657;SDS011;10488;50.846;4.078;2023-05-10T04:39:26;33.03;;;16.23;;
20657;SDS011;10488;50.846;4.078;2023-05-10T04:41:52;32.75;;;15.45;;
20657;SDS011;10488;50.846;4.078;2023-05-10T04:44:18;39.97;;;16.85;;
20657;SDS011;10488;50.846;4.078;2023-05-10T04:46:43;32.75;;;15.07;;
20657;SDS011;10488;50.846;4.078;2023-05-10T04:49:09;27.92;;;14.85;;
20657;SDS011;10488;50.846;4.078;2023-05-10T04:51:35;32.85;;;14.30;;
20657;SDS011;10488;50.846;4.078;2023-05-10T04:54:00;33.15;;;14.98;;
20657;SDS011;10488;50.846;4.078;2023-05-10T04:56:26;33.10;;;15.60;;
20657;SDS011;10488;50.846;4.078;2023-05-10T04:58:52;31.63;;;14.77;;
20657;SDS011;10488;50.846;4.078;2023-05-10T05:01:17;38.47;;;16.88;;
20657;SDS011;10488;50.846;4.078;2023-05-10T05:03:43;35.28;;;16.00;;
20657;SDS011;10488;50.846;4.078;2023-05-10T05:06:09;36.35;;;15.82;;
20657;SDS011;10488;50.846;4.078;2023-05-10T05:08:34;35.95;;;17.30;;
20657;SDS011;10488;50.846;4.078;2023-05-10T05:11:00;38.30;;;17.58;;
20657;SDS011;10488;50.846;4.078;2023-05-10T05:13:26;37.78;;;17.38;;
20657;SDS011;10488;50.846;4.078;2023-05-10T05:15:51;45.63;;;18.42;;
20657;SDS011;10488;50.846;4.078;2023-05-10T05:18:17;45.28;;;18.95;;
20657;SDS011;10488;50.846;4.078;2023-05-10T05:20:43;46.03;;;18.52;;
20657;SDS011;10488;50.846;4.078;2023-05-10T05:23:08;43.13;;;18.70;;
20657;SDS011;10488;50.846;4.078;2023-05-10T05:25:34;41.90;;;19.73;;
20657;SDS011;10488;50.846;4.078;2023-05-10T05:28:00;38.35;;;18.77;;
20657;SDS011;10488;50.846;4.078;2023-05-10T05:30:26;39.83;;;19.38;;
20657;SDS011;10488;50.846;4.078;2023-05-10T05:32:52;39.00;;;19.67;;
20657;SDS011;10488;50.846;4.078;2023-05-10T05:35:18;53.75;;;21.13;;
20657;SDS011;10488;50.846;4.078;2023-05-10T05:37:43;39.33;;;18.83;;
20657;SDS011;10488;50.846;4.078;2023-05-10T05:40:12;42.53;;;19.77;;
20657;SDS011;10488;50.846;4.078;2023-05-10T05:42:39;37.15;;;18.95;;
20657;SDS011;10488;50.846;4.078;2023-05-10T05:45:04;40.92;;;18.23;;
20657;SDS011;10488;50.846;4.078;2023-05-10T05:47:30;38.10;;;18.67;;
20657;SDS011;10488;50.846;4.078;2023-05-10T05:49:56;31.83;;;18.20;;
20657;SDS011;10488;50.846;4.078;2023-05-10T05:52:21;50.92;;;20.27;;
20657;SDS011;10488;50.846;4.078;2023-05-10T05:54:47;41.55;;;20.35;;
20657;SDS011;10488;50.846;4.078;2023-05-10T05:57:13;48.97;;;19.77;;
20657;SDS011;10488;50.846;4.078;2023-05-10T05:59:38;46.38;;;19.80;;
20657;SDS011;10488;50.846;4.078;2023-05-10T06:02:09;53.00;;;19.80;;
20657;SDS011;10488;50.846;4.078;2023-05-10T06:04:34;46.40;;;19.13;;
20657;SDS011;10488;50.846;4.078;2023-05-10T06:07:00;41.97;;;18.08;;
20657;SDS011;10488;50.846;4.078;2023-05-10T06:09:26;54.97;;;20.23;;
20657;SDS011;10488;50.846;4.078;2023-05-10T06:11:51;43.67;;;19.13;;
20657;SDS011;10488;50.846;4.078;2023-05-10T06:14:17;43.10;;;19.17;;
20657;SDS011;10488;50.846;4.078;2023-05-10T06:16:48;45.75;;;18.80;;
20657;SDS011;10488;50.846;4.078;2023-05-10T06:19:14;47.83;;;19.17;;
20657;SDS011;10488;50.846;4.078;2023-05-10T06:21:39;40.55;;;18.63;;
20657;SDS011;10488;50.846;4.078;2023-05-10T06:24:05;44.67;;;19.80;;
20657;SDS011;10488;50.846;4.078;2023-05-10T06:26:31;39.53;;;18.65;;
20657;SDS011;10488;50.846;4.078;2023-05-10T06:28:58;42.47;;;17.65;;
20657;SDS011;10488;50.846;4.078;2023-05-10T06:31:23;40.30;;;18.13;;
20657;SDS011;10488;50.846;4.078;2023-05-10T06:33:49;31.70;;;16.27;;
20657;SDS011;10488;50.846;4.078;2023-05-10T06:36:15;35.70;;;15.73;;
20657;SDS011;10488;50.846;4.078;2023-05-10T06:38:40;33.13;;;16.27;;
20657;SDS011;10488;50.846;4.078;2023-05-10T06:41:06;34.30;;;15.55;;
20657;SDS011;10488;50.846;4.078;2023-05-10T06:43:32;34.85;;;16.83;;
20657;SDS011;10488;50.846;4.078;2023-05-10T06:45:57;33.88;;;16.70;;
20657;SDS011;10488;50.846;4.078;2023-05-10T06:48:23;35.13;;;15.68;;
20657;SDS011;10488;50.846;4.078;2023-05-10T06:50:49;22.95;;;13.82;;
20657;SDS011;10488;50.846;4.078;2023-05-10T06:53:14;28.92;;;13.90;;
20657;SDS011;10488;50.846;4.078;2023-05-10T06:55:40;34.65;;;14.10;;
20657;SDS011;10488;50.846;4.078;2023-05-10T06:58:06;27.63;;;14.05;;
20657;SDS011;10488;50.846;4.078;2023-05-10T07:00:32;28.40;;;14.23;;
20657;SDS011;10488;50.846;4.078;2023-05-10T07:02:57;25.85;;;14.45;;
20657;SDS011;10488;50.846;4.078;2023-05-10T07:05:23;30.30;;;13.07;;
20657;SDS011;10488;50.846;4.078;2023-05-10T07:07:49;29.35;;;13.70;;
20657;SDS011;10488;50.846;4.078;2023-05-10T07:10:15;20.80;;;11.63;;
20657;SDS011;10488;50.846;4.078;2023-05-10T07:12:41;24.90;;;12.25;;
20657;SDS011;10488;50.846;4.078;2023-05-10T07:15:06;22.17;;;11.68;;
20657;SDS011;10488;50.846;4.078;2023-05-10T07:17:33;25.25;;;12.80;;
20657;SDS011;10488;50.846;4.078;2023-05-10T07:19:59;27.50;;;12.15;;
20657;SDS011;10488;50.846;4.078;2023-05-10T07:22:25;25.98;;;11.45;;
20657;SDS011;10488;50.846;4.078;2023-05-10T07:24:51;22.58;;;10.93;;
20657;SDS011;10488;50.846;4.078;2023-05-10T07:27:16;20.90;;;9.50;;
20657;SDS011;10488;50.846;4.078;2023-05-10T07:29:42;23.77;;;8.93;;
20657;SDS011;10488;50.846;4.078;2023-05-10T07:32:08;23.48;;;9.98;;
20657;SDS011;10488;50.846;4.078;2023-05-10T07:34:33;24.45;;;11.63;;
20657;SDS011;10488;50.846;4.078;2023-05-10T07:36:59;19.23;;;10.00;;
20657;SDS011;10488;50.846;4.078;2023-05-10T07:39:26;21.95;;;11.27;;
20657;SDS011;10488;50.846;4.078;2023-05-10T07:41:52;21.73;;;10.80;;
20657;SDS011;10488;50.846;4.078;2023-05-10T07:44:18;22.52;;;10.88;;
20657;SDS011;10488;50.846;4.078;2023-05-10T07:46:45;18.50;;;10.48;;
20657;SDS011;10488;50.846;4.078;2023-05-10T07:49:11;25.20;;;10.88;;
20657;SDS011;10488;50.846;4.078;2023-05-10T07:51:37;21.92;;;11.77;;
20657;SDS011;10488;50.846;4.078;2023-05-10T07:54:03;20.80;;;11.05;;
20657;SDS011;10488;50.846;4.078;2023-05-10T07:56:29;22.60;;;10.10;;
20657;SDS011;10488;50.846;4.078;2023-05-10T07:58:57;29.08;;;11.05;;
20657;SDS011;10488;50.846;4.078;2023-05-10T08:01:29;17.80;;;9.90;;
20657;SDS011;10488;50.846;4.078;2023-05-10T08:03:56;20.70;;;9.20;;
20657;SDS011;10488;50.846;4.078;2023-05-10T08:06:21;18.33;;;9.48;;
20657;SDS011;10488;50.846;4.078;2023-05-10T08:08:48;16.48;;;9.20;;
20657;SDS011;10488;50.846;4.078;2023-05-10T08:11:18;13.07;;;7.78;;
20657;SDS011;10488;50.846;4.078;2023-05-10T08:13:45;16.17;;;8.80;;
20657;SDS011;10488;50.846;4.078;2023-05-10T08:16:11;10.82;;;7.40;;
20657;SDS011;10488;50.846;4.078;2023-05-10T08:18:37;11.52;;;7.63;;
20657;SDS011;10488;50.846;4.078;2023-05-10T08:21:03;13.30;;;7.53;;
20657;SDS011;10488;50.846;4.078;2023-05-10T08:23:29;12.10;;;6.95;;
20657;SDS011;10488;50.846;4.078;2023-05-10T08:25:55;12.35;;;7.53;;
20657;SDS011;10488;50.846;4.078;2023-05-10T08:28:21;9.90;;;7.07;;
20657;SDS011;10488;50.846;4.078;2023-05-10T08:30:47;12.73;;;8.00;;
20657;SDS011;10488;50.846;4.078;2023-05-10T08:33:12;11.60;;;7.10;;
20657;SDS011;10488;50.846;4.078;2023-05-10T08:35:38;10.73;;;6.72;;
20657;SDS011;10488;50.846;4.078;2023-05-10T08:38:04;13.65;;;7.15;;
20657;SDS011;10488;50.846;4.078;2023-05-10T08:40:29;13.57;;;7.47;;
20657;SDS011;10488;50.846;4.078;2023-05-10T08:42:58;10.95;;;7.75;;
20657;SDS011;10488;50.846;4.078;2023-05-10T08:45:35;15.93;;;7.05;;
20657;SDS011;10488;50.846;4.078;2023-05-10T08:48:05;12.23;;;7.53;;
20657;SDS011;10488;50.846;4.078;2023-05-10T08:50:33;16.58;;;8.43;;
20657;SDS011;10488;50.846;4.078;2023-05-10T08:53:04;13.73;;;8.48;;
20657;SDS011;10488;50.846;4.078;2023-05-10T08:55:37;13.60;;;8.70;;
20657;SDS011;10488;50.846;4.078;2023-05-10T08:58:05;14.13;;;8.13;;
20657;SDS011;10488;50.846;4.078;2023-05-10T09:00:32;17.65;;;8.35;;
20657;SDS011;10488;50.846;4.078;2023-05-10T09:02:58;16.58;;;8.35;;
20657;SDS011;10488;50.846;4.078;2023-05-10T09:05:27;15.45;;;8.75;;
20657;SDS011;10488;50.846;4.078;2023-05-10T09:07:53;17.17;;;8.20;;
20657;SDS011;10488;50.846;4.078;2023-05-10T09:10:19;11.88;;;8.23;;
20657;SDS011;10488;50.846;4.078;2023-05-10T09:12:46;14.40;;;8.02;;
20657;SDS011;10488;50.846;4.078;2023-05-10T09:15:16;16.70;;;8.32;;
20657;SDS011;10488;50.846;4.078;2023-05-10T09:17:44;15.95;;;8.43;;
20657;SDS011;10488;50.846;4.078;2023-05-10T09:20:11;12.85;;;8.45;;
20657;SDS011;10488;50.846;4.078;2023-05-10T09:22:36;13.57;;;8.68;;
20657;SDS011;10488;50.846;4.078;2023-05-10T09:25:06;16.27;;;8.57;;
20657;SDS011;10488;50.846;4.078;2023-05-10T09:27:33;15.23;;;9.07;;
20657;SDS011;10488;50.846;4.078;2023-05-10T09:30:00;12.88;;;9.23;;
20657;SDS011;10488;50.846;4.078;2023-05-10T09:35:23;11.20;;;8.38;;
20657;SDS011;10488;50.846;4.078;2023-05-10T09:37:51;12.85;;;8.65;;
20657;SDS011;10488;50.846;4.078;2023-05-10T09:40:19;12.90;;;8.65;;
20657;SDS011;10488;50.846;4.078;2023-05-10T09:42:53;12.95;;;8.77;;
20657;SDS011;10488;50.846;4.078;2023-05-10T09:45:19;14.95;;;8.55;;
20657;SDS011;10488;50.846;4.078;2023-05-10T09:47:46;13.60;;;9.45;;
20657;SDS011;10488;50.846;4.078;2023-05-10T09:50:12;14.63;;;8.88;;
20657;SDS011;10488;50.846;4.078;2023-05-10T09:55:20;17.45;;;8.35;;
20657;SDS011;10488;50.846;4.078;2023-05-10T09:57:47;10.38;;;7.13;;
20657;SDS011;10488;50.846;4.078;2023-05-10T10:00:18;14.10;;;7.88;;
20657;SDS011;10488;50.846;4.078;2023-05-10T10:02:45;13.25;;;7.88;;
20657;SDS011;10488;50.846;4.078;2023-05-10T10:05:19;10.32;;;7.47;;
20657;SDS011;10488;50.846;4.078;2023-05-10T10:07:45;14.18;;;8.57;;
20657;SDS011;10488;50.846;4.078;2023-05-10T10:10:11;12.77;;;8.55;;
20657;SDS011;10488;50.846;4.078;2023-05-10T10:12:38;14.07;;;8.25;;
20657;SDS011;10488;50.846;4.078;2023-05-10T10:15:06;14.13;;;7.70;;
20657;SDS011;10488;50.846;4.078;2023-05-10T10:17:35;13.55;;;7.05;;
20657;SDS011;10488;50.846;4.078;2023-05-10T10:20:03;11.48;;;8.23;;
20657;SDS011;10488;50.846;4.078;2023-05-10T10:22:29;13.18;;;7.68;;
20657;SDS011;10488;50.846;4.078;2023-05-10T10:24:55;17.77;;;7.78;;
20657;SDS011;10488;50.846;4.078;2023-05-10T10:27:24;12.60;;;7.88;;
20657;SDS011;10488;50.846;4.078;2023-05-10T10:30:01;18.73;;;8.18;;
20657;SDS011;10488;50.846;4.078;2023-05-10T10:35:03;13.90;;;8.38;;
20657;SDS011;10488;50.846;4.078;2023-05-10T10:37:45;17.67;;;7.72;;
20657;SDS011;10488;50.846;4.078;2023-05-10T10:42:57;16.58;;;8.75;;
20657;SDS011;10488;50.846;4.078;2023-05-10T10:45:43;14.30;;;8.73;;
20657;SDS011;10488;50.846;4.078;2023-05-10T10:48:22;15.20;;;9.13;;
20657;SDS011;10488;50.846;4.078;2023-05-10T10:50:55;12.52;;;7.90;;
20657;SDS011;10488;50.846;4.078;2023-05-10T10:53:22;13.27;;;8.45;;
20657;SDS011;10488;50.846;4.078;2023-05-10T10:55:51;13.30;;;8.18;;
20657;SDS011;10488;50.846;4.078;2023-05-10T10:58:34;13.80;;;8.43;;
20657;SDS011;10488;50.846;4.078;2023-05-10T11:03:40;15.68;;;8.85;;
20657;SDS011;10488;50.846;4.078;2023-05-10T11:06:06;12.23;;;8.48;;
20657;SDS011;10488;50.846;4.078;2023-05-10T11:08:34;14.23;;;8.68;;
20657;SDS011;10488;50.846;4.078;2023-05-10T11:11:07;11.73;;;8.70;;
20657;SDS011;10488;50.846;4.078;2023-05-10T11:13:40;11.07;;;7.90;;
20657;SDS011;10488;50.846;4.078;2023-05-10T11:16:14;13.57;;;8.50;;
20657;SDS011;10488;50.846;4.078;2023-05-10T11:18:40;13.23;;;8.95;;
20657;SDS011;10488;50.846;4.078;2023-05-10T11:21:16;11.70;;;8.95;;
20657;SDS011;10488;50.846;4.078;2023-05-10T11:26:14;13.57;;;9.32;;
20657;SDS011;10488;50.846;4.078;2023-05-10T11:28:41;13.02;;;8.93;;
20657;SDS011;10488;50.846;4.078;2023-05-10T11:31:07;15.13;;;9.13;;
20657;SDS011;10488;50.846;4.078;2023-05-10T11:33:46;9.95;;;8.10;;
20657;SDS011;10488;50.846;4.078;2023-05-10T11:36:19;11.27;;;8.65;;
20657;SDS011;10488;50.846;4.078;2023-05-10T11:38:45;12.57;;;8.15;;
20657;SDS011;10488;50.846;4.078;2023-05-10T11:41:11;13.50;;;8.68;;
20657;SDS011;10488;50.846;4.078;2023-05-10T11:43:40;12.13;;;8.38;;
20657;SDS011;10488;50.846;4.078;2023-05-10T11:46:07;13.73;;;8.50;;
20657;SDS011;10488;50.846;4.078;2023-05-10T11:48:35;15.07;;;9.52;;
20657;SDS011;10488;50.846;4.078;2023-05-10T11:51:01;10.93;;;8.10;;
20657;SDS011;10488;50.846;4.078;2023-05-10T11:53:31;12.75;;;9.20;;
20657;SDS011;10488;50.846;4.078;2023-05-10T11:56:07;11.93;;;9.02;;
20657;SDS011;10488;50.846;4.078;2023-05-10T11:58:35;10.77;;;8.27;;
20657;SDS011;10488;50.846;4.078;2023-05-10T12:01:02;10.20;;;7.97;;
20657;SDS011;10488;50.846;4.078;2023-05-10T12:03:29;15.98;;;8.57;;
20657;SDS011;10488;50.846;4.078;2023-05-10T12:05:55;13.27;;;8.93;;
20657;SDS011;10488;50.846;4.078;2023-05-10T12:08:24;11.63;;;9.18;;
20657;SDS011;10488;50.846;4.078;2023-05-10T12:10:51;11.30;;;8.13;;
20657;SDS011;10488;50.846;4.078;2023-05-10T12:13:18;14.40;;;8.98;;
20657;SDS011;10488;50.846;4.078;2023-05-10T12:15:46;14.40;;;9.13;;
20657;SDS011;10488;50.846;4.078;2023-05-10T12:18:12;11.15;;;8.70;;
20657;SDS011;10488;50.846;4.078;2023-05-10T12:20:39;15.30;;;9.48;;
20657;SDS011;10488;50.846;4.078;2023-05-10T12:23:05;14.43;;;9.45;;
20657;SDS011;10488;50.846;4.078;2023-05-10T12:25:33;13.25;;;9.35;;
20657;SDS011;10488;50.846;4.078;2023-05-10T12:28:02;14.60;;;9.45;;
20657;SDS011;10488;50.846;4.078;2023-05-10T12:30:30;13.52;;;9.30;;
20657;SDS011;10488;50.846;4.078;2023-05-10T12:33:01;14.30;;;9.23;;
20657;SDS011;10488;50.846;4.078;2023-05-10T12:35:43;14.02;;;9.13;;
20657;SDS011;10488;50.846;4.078;2023-05-10T12:38:26;11.13;;;9.23;;
20657;SDS011;10488;50.846;4.078;2023-05-10T12:40:53;14.25;;;9.60;;
20657;SDS011;10488;50.846;4.078;2023-05-10T12:43:19;15.68;;;10.00;;
20657;SDS011;10488;50.846;4.078;2023-05-10T12:45:45;14.60;;;9.75;;
20657;SDS011;10488;50.846;4.078;2023-05-10T12:48:13;10.40;;;8.95;;
20657;SDS011;10488;50.846;4.078;2023-05-10T12:50:38;11.93;;;9.90;;
20657;SDS011;10488;50.846;4.078;2023-05-10T12:53:04;13.30;;;9.50;;
20657;SDS011;10488;50.846;4.078;2023-05-10T12:55:30;13.05;;;9.65;;
20657;SDS011;10488;50.846;4.078;2023-05-10T12:57:56;14.82;;;9.25;;
20657;SDS011;10488;50.846;4.078;2023-05-10T13:00:22;13.70;;;8.77;;
20657;SDS011;10488;50.846;4.078;2023-05-10T13:02:47;12.77;;;8.63;;
20657;SDS011;10488;50.846;4.078;2023-05-10T13:05:13;14.15;;;9.35;;
20657;SDS011;10488;50.846;4.078;2023-05-10T13:07:39;15.27;;;9.35;;
20657;SDS011;10488;50.846;4.078;2023-05-10T13:10:05;11.45;;;8.40;;
20657;SDS011;10488;50.846;4.078;2023-05-10T13:12:31;11.55;;;9.48;;
20657;SDS011;10488;50.846;4.078;2023-05-10T13:14:57;12.43;;;9.07;;
20657;SDS011;10488;50.846;4.078;2023-05-10T13:17:24;12.40;;;9.35;;
20657;SDS011;10488;50.846;4.078;2023-05-10T13:19:50;11.02;;;9.07;;
20657;SDS011;10488;50.846;4.078;2023-05-10T13:22:16;13.80;;;8.85;;
20657;SDS011;10488;50.846;4.078;2023-05-10T13:24:42;15.38;;;10.15;;
20657;SDS011;10488;50.846;4.078;2023-05-10T13:27:08;14.10;;;10.25;;
20657;SDS011;10488;50.846;4.078;2023-05-10T13:29:34;13.98;;;11.20;;
20657;SDS011;10488;50.846;4.078;2023-05-10T13:31:59;13.32;;;10.02;;
20657;SDS011;10488;50.846;4.078;2023-05-10T13:34:25;15.48;;;10.35;;
20657;SDS011;10488;50.846;4.078;2023-05-10T13:36:52;13.85;;;10.25;;
20657;SDS011;10488;50.846;4.078;2023-05-10T13:39:19;18.15;;;11.27;;
20657;SDS011;10488;50.846;4.078;2023-05-10T13:41:45;16.35;;;10.80;;
20657;SDS011;10488;50.846;4.078;2023-05-10T13:44:14;14.43;;;10.48;;
20657;SDS011;10488;50.846;4.078;2023-05-10T13:46:40;14.00;;;10.75;;
20657;SDS011;10488;50.846;4.078;2023-05-10T13:49:08;13.10;;;10.27;;
20657;SDS011;10488;50.846;4.078;2023-05-10T13:51:34;15.32;;;10.68;;
20657;SDS011;10488;50.846;4.078;2023-05-10T13:54:00;16.92;;;10.23;;
20657;SDS011;10488;50.846;4.078;2023-05-10T13:56:26;15.55;;;10.23;;
20657;SDS011;10488;50.846;4.078;2023-05-10T13:58:52;15.07;;;11.00;;
20657;SDS011;10488;50.846;4.078;2023-05-10T14:01:18;16.05;;;10.75;;
20657;SDS011;10488;50.846;4.078;2023-05-10T14:03:44;15.05;;;10.25;;
20657;SDS011;10488;50.846;4.078;2023-05-10T14:06:09;15.13;;;10.38;;
20657;SDS011;10488;50.846;4.078;2023-05-10T14:08:35;17.52;;;10.35;;
20657;SDS011;10488;50.846;4.078;2023-05-10T14:11:01;14.30;;;10.55;;
20657;SDS011;10488;50.846;4.078;2023-05-10T14:13:27;18.02;;;10.73;;
20657;SDS011;10488;50.846;4.078;2023-05-10T14:15:53;21.77;;;12.27;;
20657;SDS011;10488;50.846;4.078;2023-05-10T14:18:19;14.88;;;11.07;;
20657;SDS011;10488;50.846;4.078;2023-05-10T14:20:46;20.25;;;11.75;;
20657;SDS011;10488;50.846;4.078;2023-05-10T14:23:12;19.13;;;11.95;;
20657;SDS011;10488;50.846;4.078;2023-05-10T14:25:39;19.55;;;12.80;;
20657;SDS011;10488;50.846;4.078;2023-05-10T14:28:05;12.57;;;7.82;;
20657;SDS011;10488;50.846;4.078;2023-05-10T14:30:31;9.68;;;6.20;;
20657;SDS011;10488;50.846;4.078;2023-05-10T14:32:57;11.65;;;6.18;;
20657;SDS011;10488;50.846;4.078;2023-05-10T14:35:23;10.18;;;5.65;;
20657;SDS011;10488;50.846;4.078;2023-05-10T14:37:49;15.60;;;6.80;;
20657;SDS011;10488;50.846;4.078;2023-05-10T14:40:15;11.35;;;6.50;;
20657;SDS011;10488;50.846;4.078;2023-05-10T14:42:42;10.50;;;6.13;;
20657;SDS011;10488;50.846;4.078;2023-05-10T14:45:08;12.50;;;6.85;;
20657;SDS011;10488;50.846;4.078;2023-05-10T14:47:34;10.45;;;6.10;;
20657;SDS011;10488;50.846;4.078;2023-05-10T14:50:00;12.88;;;6.63;;
20657;SDS011;10488;50.846;4.078;2023-05-10T14:52:26;10.77;;;6.03;;
20657;SDS011;10488;50.846;4.078;2023-05-10T14:54:52;14.73;;;6.60;;
20657;SDS011;10488;50.846;4.078;2023-05-10T14:57:18;9.57;;;6.00;;
20657;SDS011;10488;50.846;4.078;2023-05-10T14:59:44;8.23;;;6.00;;
20657;SDS011;10488;50.846;4.078;2023-05-10T15:02:09;10.70;;;5.88;;